createdAt,value
2019-05-09T00:00:33.618Z,59.80
2019-05-09T00:04:39.631Z,58.90
2019-05-09T00:08:46.673Z,58.60
2019-05-09T00:12:54.061Z,59.00
2019-05-09T00:17:00.150Z,58.70
2019-05-09T00:21:14.493Z,59.40
2019-05-09T00:25:20.459Z,61.80
2019-05-09T00:29:36.505Z,60.20
2019-05-09T00:33:48.134Z,62.50
2019-05-09T00:37:55.833Z,59.50
2019-05-09T00:42:04.338Z,59.40
2019-05-09T00:46:29.451Z,58.70
2019-05-09T00:50:35.244Z,62.40
2019-05-09T00:54:41.058Z,61.50
2019-05-09T00:58:47.768Z,59.10
2019-05-09T01:02:54.166Z,58.70
2019-05-09T01:07:00.413Z,59.40
2019-05-09T01:11:14.613Z,58.70
2019-05-09T01:15:13.871Z,58.70
2019-05-09T01:19:23.143Z,58.90
2019-05-09T01:23:28.761Z,60.70
2019-05-09T01:27:35.600Z,58.70
2019-05-09T01:31:43.429Z,58.70
2019-05-09T01:35:50.311Z,58.90
2019-05-09T01:39:56.241Z,59.00
2019-05-09T01:44:04.094Z,58.90
2019-05-09T01:48:13.975Z,60.50
2019-05-09T01:52:19.842Z,59.00
2019-05-09T01:56:25.987Z,59.20
2019-05-09T02:00:33.210Z,59.10
2019-05-09T02:04:39.442Z,59.10
2019-05-09T02:08:45.750Z,66.60
2019-05-09T02:12:53.647Z,59.80
2019-05-09T02:17:28.536Z,59.50
2019-05-09T02:21:34.695Z,59.40
2019-05-09T02:25:40.669Z,59.40
2019-05-09T02:29:46.282Z,68.00
2019-05-09T02:33:54.126Z,72.80
2019-05-09T02:38:00.657Z,68.60
2019-05-09T02:42:13.685Z,62.30
2019-05-09T02:46:38.310Z,60.90
2019-05-09T02:50:42.902Z,60.40
2019-05-09T02:54:49.949Z,60.30
2019-05-09T02:59:20.894Z,60.20
2019-05-09T03:03:29.736Z,60.20
2019-05-09T03:07:51.201Z,60.30
2019-05-09T03:11:58.893Z,60.50
2019-05-09T03:16:11.089Z,60.30
2019-05-09T03:20:30.178Z,60.70
2019-05-09T03:24:39.373Z,60.60
2019-05-09T03:29:10.747Z,60.60
2019-05-09T03:33:19.835Z,64.00
2019-05-09T03:37:24.891Z,62.20
2019-05-09T03:41:30.702Z,62.20
2019-05-09T03:45:51.975Z,61.60
2019-05-09T03:50:17.711Z,66.60
2019-05-09T03:54:24.289Z,67.20
2019-05-09T03:58:31.461Z,62.00
2019-05-09T04:02:38.362Z,64.50
2019-05-09T04:06:48.441Z,62.10
2019-05-09T04:10:58.582Z,61.70
2019-05-09T04:15:05.519Z,62.10
2019-05-09T04:19:14.800Z,63.10
2019-05-09T04:23:21.736Z,76.60
2019-05-09T04:27:30.738Z,63.20
2019-05-09T04:31:38.946Z,69.60
2019-05-09T04:35:47.568Z,65.30
2019-05-09T04:39:54.105Z,62.80
2019-05-09T04:44:04.999Z,62.50
2019-05-09T04:48:13.233Z,62.60
2019-05-09T04:52:18.176Z,63.00
2019-05-09T04:56:34.719Z,82.90
2019-05-09T05:00:58.674Z,67.80
2019-05-09T05:05:04.790Z,64.30
2019-05-09T05:09:10.497Z,64.90
2019-05-09T05:13:25.800Z,83.30
2019-05-09T05:17:24.405Z,72.30
2019-05-09T05:21:30.190Z,69.00
2019-05-09T05:25:38.126Z,75.10
2019-05-09T05:29:43.426Z,67.50
2019-05-09T05:33:57.939Z,68.50
2019-05-09T05:38:03.639Z,73.20
2019-05-09T05:42:09.284Z,68.80
2019-05-09T05:46:33.707Z,71.70
2019-05-09T05:50:40.217Z,76.80
2019-05-09T05:54:47.712Z,69.80
2019-05-09T05:58:53.532Z,70.40
2019-05-09T06:03:00.909Z,77.20
2019-05-09T06:07:07.999Z,76.30
2019-05-09T06:11:14.013Z,73.30
2019-05-09T06:15:19.762Z,75.50
2019-05-09T06:19:25.465Z,73.70
2019-05-09T06:23:31.174Z,74.10
2019-05-09T06:27:37.560Z,74.30
2019-05-09T06:31:43.837Z,73.60
2019-05-09T06:35:49.546Z,73.20
2019-05-09T06:39:58.269Z,77.10
2019-05-09T06:44:29.400Z,74.80
2019-05-09T06:48:34.122Z,74.90
2019-05-09T06:52:40.859Z,76.10
2019-05-09T06:56:49.056Z,75.00
2019-05-09T07:01:01.276Z,75.90
2019-05-09T07:05:24.529Z,74.00
2019-05-09T07:09:44.615Z,75.50
2019-05-09T07:13:50.288Z,73.80
2019-05-09T07:17:57.510Z,74.00
2019-05-09T07:22:09.094Z,75.90
2019-05-09T07:26:17.868Z,79.00
2019-05-09T07:30:50.497Z,77.20
2019-05-09T07:34:59.880Z,75.90
2019-05-09T07:39:08.728Z,74.00
2019-05-09T07:43:14.909Z,74.60
2019-05-09T07:47:20.602Z,80.20
2019-05-09T07:51:27.486Z,78.00
2019-05-09T07:55:34.440Z,76.30
2019-05-09T07:59:40.077Z,77.20
2019-05-09T08:03:45.937Z,72.50
2019-05-09T08:07:51.710Z,76.10
2019-05-09T08:11:58.724Z,75.50
2019-05-09T08:16:07.939Z,77.20
2019-05-09T08:20:13.916Z,74.60
2019-05-09T08:24:19.876Z,77.70
2019-05-09T08:28:27.631Z,77.50
2019-05-09T08:32:32.758Z,76.00
2019-05-09T08:36:38.666Z,74.80
2019-05-09T08:40:44.288Z,74.20
2019-05-09T08:44:50.001Z,73.00
2019-05-09T08:48:57.625Z,74.70
2019-05-09T08:53:03.448Z,72.40
2019-05-09T08:57:09.165Z,77.50
2019-05-09T09:01:14.862Z,72.10
2019-05-09T09:05:23.111Z,74.30
2019-05-09T09:09:28.760Z,74.50
2019-05-09T09:13:34.536Z,72.40
2019-05-09T09:17:41.130Z,75.70
2019-05-09T09:21:49.697Z,79.10
2019-05-09T09:25:58.171Z,71.80
2019-05-09T09:30:16.508Z,75.40
2019-05-09T09:34:10.707Z,71.40
2019-05-09T09:38:17.720Z,78.30
2019-05-09T09:42:23.587Z,76.20
2019-05-09T09:46:29.262Z,70.80
2019-05-09T09:50:34.941Z,71.30
2019-05-09T09:54:40.635Z,72.30
2019-05-09T09:58:51.342Z,73.30
2019-05-09T10:02:58.688Z,72.00
2019-05-09T10:07:04.638Z,72.80
2019-05-09T10:11:11.102Z,74.70
2019-05-09T10:15:28.675Z,70.30
2019-05-09T10:19:48.368Z,71.10
2019-05-09T10:23:54.879Z,71.50
2019-05-09T10:28:00.642Z,70.80
2019-05-09T10:32:09.073Z,70.70
2019-05-09T10:36:14.674Z,72.40
2019-05-09T10:40:23.249Z,73.00
2019-05-09T10:44:48.884Z,74.60
2019-05-09T10:48:59.834Z,74.90
2019-05-09T10:53:07.848Z,75.10
2019-05-09T10:57:15.430Z,75.40
2019-05-09T11:01:21.035Z,72.20
2019-05-09T11:05:27.736Z,73.60
2019-05-09T11:09:33.498Z,73.60
2019-05-09T11:13:39.213Z,73.80
2019-05-09T11:17:47.312Z,72.30
2019-05-09T11:21:52.354Z,70.90
2019-05-09T11:25:58.150Z,72.50
2019-05-09T11:30:04.833Z,70.40
2019-05-09T11:34:10.834Z,72.00
2019-05-09T11:38:32.777Z,71.80
2019-05-09T11:42:28.331Z,69.00
2019-05-09T11:46:33.424Z,69.30
2019-05-09T11:50:39.117Z,69.40
2019-05-09T11:54:44.889Z,70.50
2019-05-09T11:58:50.891Z,68.10
2019-05-09T12:02:58.162Z,67.70
2019-05-09T12:07:04.160Z,67.40
2019-05-09T12:11:09.790Z,67.00
2019-05-09T12:16:50.140Z,66.90
2019-05-09T12:23:24.583Z,67.20
2019-05-09T12:24:23.839Z,67.60
2019-05-09T12:28:29.781Z,66.20
2019-05-09T12:32:38.517Z,66.00
2019-05-09T12:36:45.432Z,65.50
2019-05-09T12:40:51.160Z,64.80
2019-05-09T12:49:38.582Z,63.70
2019-05-09T12:53:44.524Z,62.10
2019-05-09T12:57:50.284Z,62.60
2019-05-09T13:01:58.024Z,61.20
2019-05-09T13:06:03.582Z,59.80
2019-05-09T13:10:09.333Z,61.00
2019-05-09T13:14:19.745Z,59.00
2019-05-09T13:18:37.580Z,61.70
2019-05-09T13:22:43.414Z,61.80
2019-05-09T13:26:50.955Z,60.60
2019-05-09T13:30:58.492Z,60.80
2019-05-09T13:35:04.402Z,60.30
2019-05-09T13:39:13.428Z,59.20
2019-05-09T13:43:19.705Z,60.40
2019-05-09T13:47:28.032Z,59.20
2019-05-09T13:51:35.166Z,59.80
2019-05-09T13:55:41.095Z,59.10
2019-05-09T13:59:48.573Z,59.60
2019-05-09T14:03:57.734Z,59.20
2019-05-09T14:08:07.976Z,59.30
2019-05-09T14:12:12.717Z,57.60
2019-05-09T14:16:22.162Z,59.90
2019-05-09T14:20:27.535Z,56.90
2019-05-09T14:24:33.203Z,58.00
2019-05-09T14:28:38.938Z,58.60
2019-05-09T14:32:44.582Z,55.30
2019-05-09T14:36:50.283Z,56.00
2019-05-09T14:40:55.941Z,55.30
2019-05-09T14:45:02.529Z,56.20
2019-05-09T14:49:09.902Z,57.50
2019-05-09T14:53:18.056Z,55.10
2019-05-09T14:57:24.423Z,56.80
2019-05-09T15:01:30.095Z,56.10
2019-05-09T15:05:37.753Z,55.50
2019-05-09T15:09:42.989Z,55.60
2019-05-09T15:13:48.683Z,54.70
2019-05-09T15:17:54.581Z,54.70
2019-05-09T15:22:02.932Z,50.60
2019-05-09T15:26:08.523Z,50.60
2019-05-09T15:30:14.201Z,49.10
2019-05-09T15:34:19.846Z,53.80
2019-05-09T15:38:25.674Z,53.40
2019-05-09T15:42:31.264Z,53.60
2019-05-09T15:46:42.378Z,53.20
2019-05-09T15:50:48.158Z,53.50
2019-05-09T15:54:54.010Z,53.20
2019-05-09T15:58:59.607Z,54.20
2019-05-09T16:03:05.375Z,54.80
2019-05-09T16:07:11.238Z,51.60
2019-05-09T16:11:18.014Z,54.70
2019-05-09T16:15:24.040Z,54.50
2019-05-09T16:19:29.887Z,43.20
2019-05-09T16:23:37.928Z,54.60
2019-05-09T16:27:42.993Z,54.20
2019-05-09T16:31:48.843Z,54.10
2019-05-09T16:35:56.460Z,55.30
2019-05-09T16:40:03.204Z,54.70
2019-05-09T16:44:08.915Z,54.80
2019-05-09T16:48:14.706Z,54.70
2019-05-09T16:52:20.349Z,55.00
2019-05-09T16:56:28.544Z,54.80
2019-05-09T17:00:39.544Z,55.30
2019-05-09T17:04:45.159Z,53.10
2019-05-09T17:08:52.171Z,55.50
2019-05-09T17:12:58.278Z,57.90
2019-05-09T17:17:04.157Z,59.00
2019-05-09T17:21:37.949Z,57.20
2019-05-09T17:25:43.974Z,56.50
2019-05-09T17:29:50.743Z,56.60
2019-05-09T17:33:57.939Z,57.30
2019-05-09T17:38:04.320Z,56.50
2019-05-09T17:42:10.156Z,57.00
2019-05-09T17:46:15.933Z,57.20
2019-05-09T17:50:21.717Z,57.00
2019-05-09T17:54:28.772Z,57.00
2019-05-09T17:58:34.791Z,57.30
2019-05-09T18:02:42.931Z,57.50
2019-05-09T18:06:49.013Z,57.80
2019-05-09T18:10:58.411Z,57.70
2019-05-09T18:15:04.598Z,57.70
2019-05-09T18:19:10.557Z,57.90
2019-05-09T18:23:17.717Z,57.90
2019-05-09T18:32:19.231Z,58.20
2019-05-09T18:36:29.939Z,58.30
2019-05-09T18:40:38.667Z,58.30
2019-05-09T18:44:44.691Z,58.80
2019-05-09T18:48:51.479Z,58.60
2019-05-09T18:52:59.910Z,58.60
2019-05-09T18:57:08.735Z,58.70
2019-05-09T19:01:17.140Z,58.80
2019-05-09T19:05:25.455Z,58.90
2019-05-09T19:09:31.788Z,58.90
2019-05-09T19:13:37.888Z,59.00
2019-05-09T19:17:54.470Z,59.30
2019-05-09T19:22:14.422Z,59.30
2019-05-09T19:26:32.756Z,59.50
2019-05-09T19:30:40.498Z,59.50
2019-05-09T19:34:46.785Z,59.60
2019-05-09T19:38:58.134Z,59.60
2019-05-09T19:43:05.412Z,59.70
2019-05-09T19:47:12.131Z,59.80
2019-05-09T19:51:21.797Z,60.10
2019-05-09T19:55:29.667Z,60.50
2019-05-09T19:59:37.728Z,60.50
2019-05-09T20:03:50.281Z,61.40
2019-05-09T20:07:56.510Z,61.70
2019-05-09T20:12:27.762Z,61.90
2019-05-09T20:16:35.159Z,61.90
2019-05-09T20:20:41.446Z,62.00
2019-05-09T20:24:50.142Z,62.10
2019-05-09T20:28:57.083Z,62.10
2019-05-09T20:33:04.778Z,62.20
2019-05-09T20:37:14.081Z,62.40
2019-05-09T20:41:21.495Z,62.60
2019-05-09T20:45:27.692Z,62.70
2019-05-09T20:49:34.168Z,63.20
2019-05-09T20:53:44.431Z,63.00
2019-05-09T20:57:52.061Z,63.00
2019-05-09T21:02:02.504Z,63.20
2019-05-09T21:06:11.028Z,69.70
2019-05-09T21:10:21.601Z,65.40
2019-05-09T21:14:30.050Z,64.50
2019-05-09T21:18:45.210Z,64.10
2019-05-09T21:22:52.643Z,63.90
2019-05-09T21:27:01.486Z,63.90
2019-05-09T21:31:12.996Z,64.10
2019-05-09T21:35:19.988Z,64.20
2019-05-09T21:39:26.235Z,67.10
2019-05-09T21:43:33.348Z,69.30
2019-05-09T21:47:45.544Z,72.20
2019-05-09T21:51:51.517Z,68.90
2019-05-09T21:55:57.452Z,68.40
2019-05-09T22:00:03.939Z,69.50
2019-05-09T22:04:14.398Z,66.70
2019-05-09T22:08:20.292Z,66.00
2019-05-09T22:12:25.960Z,65.70
2019-05-09T22:16:32.166Z,65.20
2019-05-09T22:20:38.032Z,65.40
2019-05-09T22:24:44.317Z,65.30
2019-05-09T22:28:51.296Z,64.90
2019-05-09T22:32:57.630Z,65.20
2019-05-09T22:37:05.002Z,64.60
2019-05-09T22:41:11.182Z,64.40
2019-05-09T22:45:16.990Z,64.10
2019-05-09T22:49:22.792Z,65.70
2019-05-09T22:53:28.535Z,64.70
2019-05-09T22:57:34.205Z,64.80
2019-05-09T23:01:44.312Z,64.50
2019-05-09T23:05:49.887Z,64.70
2019-05-09T23:09:56.891Z,64.20
2019-05-09T23:14:06.127Z,64.70
2019-05-09T23:18:19.126Z,64.60
2019-05-09T23:22:27.447Z,65.00
2019-05-09T23:26:33.213Z,64.90
2019-05-09T23:30:42.621Z,65.30
2019-05-09T23:34:48.029Z,65.00
2019-05-09T23:39:18.505Z,65.50
2019-05-09T23:43:24.997Z,65.60
2019-05-09T23:47:34.236Z,66.10
2019-05-09T23:51:46.294Z,66.40
2019-05-09T23:56:11.542Z,66.10
